sensor_id;sensor_type;location;lat;lon;timestamp;temperature;humidity
54832;DHT22;40730;53.068;6.572;2023-06-24T00:00:28;15.90;99.90
54832;DHT22;40730;53.068;6.572;2023-06-24T00:02:54;15.80;99.90
54832;DHT22;40730;53.068;6.572;2023-06-24T00:05:20;15.80;99.90
54832;DHT22;40730;53.068;6.572;2023-06-24T00:07:45;15.70;99.90
54832;DHT22;40730;53.068;6.572;2023-06-24T00:10:12;15.60;99.90
54832;DHT22;40730;53.068;6.572;2023-06-24T00:12:38;15.40;99.90
54832;DHT22;40730;53.068;6.572;2023-06-24T00:15:06;15.30;99.90
54832;DHT22;40730;53.068;6.572;2023-06-24T00:17:32;15.20;99.90
54832;DHT22;40730;53.068;6.572;2023-06-24T00:19:57;15.20;99.90
54832;DHT22;40730;53.068;6.572;2023-06-24T00:22:23;15.10;99.90
54832;DHT22;40730;53.068;6.572;2023-06-24T00:24:48;15.00;99.90
54832;DHT22;40730;53.068;6.572;2023-06-24T00:27:15;14.90;99.90
54832;DHT22;40730;53.068;6.572;2023-06-24T00:29:41;14.90;99.90
54832;DHT22;40730;53.068;6.572;2023-06-24T00:32:07;14.80;99.90
54832;DHT22;40730;53.068;6.572;2023-06-24T00:34:34;14.80;99.90
54832;DHT22;40730;53.068;6.572;2023-06-24T00:36:59;14.70;99.90
54832;DHT22;40730;53.068;6.572;2023-06-24T00:39:25;14.70;99.90
54832;DHT22;40730;53.068;6.572;2023-06-24T00:41:51;14.60;99.90
54832;DHT22;40730;53.068;6.572;2023-06-24T00:44:16;14.60;99.90
54832;DHT22;40730;53.068;6.572;2023-06-24T00:46:42;14.50;99.90
54832;DHT22;40730;53.068;6.572;2023-06-24T00:49:08;14.50;99.90
54832;DHT22;40730;53.068;6.572;2023-06-24T00:51:34;14.50;99.90
54832;DHT22;40730;53.068;6.572;2023-06-24T00:54:01;14.50;99.90
54832;DHT22;40730;53.068;6.572;2023-06-24T00:56:33;14.50;99.90
54832;DHT22;40730;53.068;6.572;2023-06-24T00:59:00;14.50;99.90
54832;DHT22;40730;53.068;6.572;2023-06-24T01:01:34;14.60;99.90
54832;DHT22;40730;53.068;6.572;2023-06-24T01:04:02;14.50;99.90
54832;DHT22;40730;53.068;6.572;2023-06-24T01:06:28;14.50;99.90
54832;DHT22;40730;53.068;6.572;2023-06-24T01:08:58;14.40;99.90
54832;DHT22;40730;53.068;6.572;2023-06-24T01:11:26;14.50;99.90
54832;DHT22;40730;53.068;6.572;2023-06-24T01:13:52;14.50;99.90
54832;DHT22;40730;53.068;6.572;2023-06-24T01:19:17;14.40;99.90
54832;DHT22;40730;53.068;6.572;2023-06-24T01:22:30;14.50;99.90
54832;DHT22;40730;53.068;6.572;2023-06-24T01:33:29;14.30;99.90
54832;DHT22;40730;53.068;6.572;2023-06-24T01:35:58;14.30;99.90
54832;DHT22;40730;53.068;6.572;2023-06-24T01:38:31;14.30;99.90
54832;DHT22;40730;53.068;6.572;2023-06-24T01:41:02;14.30;99.90
54832;DHT22;40730;53.068;6.572;2023-06-24T01:43:28;14.40;99.90
54832;DHT22;40730;53.068;6.572;2023-06-24T01:45:55;14.40;99.90
54832;DHT22;40730;53.068;6.572;2023-06-24T01:48:25;14.40;99.90
54832;DHT22;40730;53.068;6.572;2023-06-24T01:51:04;14.50;99.90
54832;DHT22;40730;53.068;6.572;2023-06-24T01:53:38;14.50;99.90
54832;DHT22;40730;53.068;6.572;2023-06-24T01:56:06;14.60;99.90
54832;DHT22;40730;53.068;6.572;2023-06-24T01:58:34;14.60;99.90
54832;DHT22;40730;53.068;6.572;2023-06-24T02:01:02;14.50;99.90
54832;DHT22;40730;53.068;6.572;2023-06-24T02:03:28;14.60;99.90
54832;DHT22;40730;53.068;6.572;2023-06-24T02:05:55;14.60;99.90
54832;DHT22;40730;53.068;6.572;2023-06-24T02:08:22;14.60;99.90
54832;DHT22;40730;53.068;6.572;2023-06-24T02:10:49;14.70;99.90
54832;DHT22;40730;53.068;6.572;2023-06-24T02:13:16;14.70;99.90
54832;DHT22;40730;53.068;6.572;2023-06-24T02:15:44;14.70;99.90
54832;DHT22;40730;53.068;6.572;2023-06-24T02:18:12;14.70;99.90
54832;DHT22;40730;53.068;6.572;2023-06-24T02:20:41;14.70;99.90
54832;DHT22;40730;53.068;6.572;2023-06-24T02:23:09;14.70;99.90
54832;DHT22;40730;53.068;6.572;2023-06-24T02:25:36;14.70;99.90
54832;DHT22;40730;53.068;6.572;2023-06-24T02:28:06;14.70;99.90
54832;DHT22;40730;53.068;6.572;2023-06-24T02:30:34;14.70;99.90
54832;DHT22;40730;53.068;6.572;2023-06-24T02:33:00;14.70;99.90
54832;DHT22;40730;53.068;6.572;2023-06-24T02:35:25;14.70;99.90
54832;DHT22;40730;53.068;6.572;2023-06-24T02:37:51;14.80;99.90
54832;DHT22;40730;53.068;6.572;2023-06-24T02:40:17;14.70;99.90
54832;DHT22;40730;53.068;6.572;2023-06-24T02:42:43;14.80;99.90
54832;DHT22;40730;53.068;6.572;2023-06-24T02:45:09;14.80;99.90
54832;DHT22;40730;53.068;6.572;2023-06-24T02:47:35;14.80;99.90
54832;DHT22;40730;53.068;6.572;2023-06-24T02:50:04;14.80;99.90
54832;DHT22;40730;53.068;6.572;2023-06-24T02:52:30;14.80;99.90
54832;DHT22;40730;53.068;6.572;2023-06-24T02:54:57;14.70;99.90
54832;DHT22;40730;53.068;6.572;2023-06-24T02:57:24;14.80;99.90
54832;DHT22;40730;53.068;6.572;2023-06-24T02:59:51;14.80;99.90
54832;DHT22;40730;53.068;6.572;2023-06-24T03:02:17;14.80;99.90
54832;DHT22;40730;53.068;6.572;2023-06-24T03:04:43;14.80;99.90
54832;DHT22;40730;53.068;6.572;2023-06-24T03:07:10;14.80;99.90
54832;DHT22;40730;53.068;6.572;2023-06-24T03:09:36;14.70;99.90
54832;DHT22;40730;53.068;6.572;2023-06-24T03:12:02;14.80;99.90
54832;DHT22;40730;53.068;6.572;2023-06-24T03:14:27;14.70;99.90
54832;DHT22;40730;53.068;6.572;2023-06-24T03:16:53;14.70;99.90
54832;DHT22;40730;53.068;6.572;2023-06-24T03:19:19;14.70;99.90
54832;DHT22;40730;53.068;6.572;2023-06-24T03:21:44;14.70;99.90
54832;DHT22;40730;53.068;6.572;2023-06-24T03:24:10;14.70;99.90
54832;DHT22;40730;53.068;6.572;2023-06-24T03:26:38;14.80;99.90
54832;DHT22;40730;53.068;6.572;2023-06-24T03:29:04;14.70;99.90
54832;DHT22;40730;53.068;6.572;2023-06-24T03:31:30;14.90;99.90
54832;DHT22;40730;53.068;6.572;2023-06-24T03:33:55;14.80;99.90
54832;DHT22;40730;53.068;6.572;2023-06-24T03:36:21;14.80;99.90
54832;DHT22;40730;53.068;6.572;2023-06-24T03:38:47;14.90;99.90
54832;DHT22;40730;53.068;6.572;2023-06-24T03:41:13;14.70;99.90
54832;DHT22;40730;53.068;6.572;2023-06-24T03:43:39;14.80;99.90
54832;DHT22;40730;53.068;6.572;2023-06-24T03:46:04;14.80;99.90
54832;DHT22;40730;53.068;6.572;2023-06-24T03:48:30;14.80;99.90
54832;DHT22;40730;53.068;6.572;2023-06-24T03:50:56;14.80;99.90
54832;DHT22;40730;53.068;6.572;2023-06-24T03:53:21;14.80;99.90
54832;DHT22;40730;53.068;6.572;2023-06-24T03:55:47;14.80;99.90
54832;DHT22;40730;53.068;6.572;2023-06-24T03:58:12;14.80;99.90
54832;DHT22;40730;53.068;6.572;2023-06-24T04:00:39;14.80;99.90
54832;DHT22;40730;53.068;6.572;2023-06-24T04:03:06;14.80;99.90
54832;DHT22;40730;53.068;6.572;2023-06-24T04:05:33;15.00;99.90
54832;DHT22;40730;53.068;6.572;2023-06-24T04:07:59;14.90;99.90
54832;DHT22;40730;53.068;6.572;2023-06-24T04:10:25;15.00;99.90
54832;DHT22;40730;53.068;6.572;2023-06-24T04:12:50;15.00;99.90
54832;DHT22;40730;53.068;6.572;2023-06-24T04:15:16;15.10;99.90
54832;DHT22;40730;53.068;6.572;2023-06-24T04:17:42;15.20;99.90
54832;DHT22;40730;53.068;6.572;2023-06-24T04:20:08;15.30;99.90
54832;DHT22;40730;53.068;6.572;2023-06-24T04:22:37;15.50;99.90
54832;DHT22;40730;53.068;6.572;2023-06-24T04:25:04;15.80;99.90
54832;DHT22;40730;53.068;6.572;2023-06-24T04:27:31;15.80;99.90
54832;DHT22;40730;53.068;6.572;2023-06-24T04:29:58;15.80;99.90
54832;DHT22;40730;53.068;6.572;2023-06-24T04:32:24;15.80;99.90
54832;DHT22;40730;53.068;6.572;2023-06-24T04:34:49;15.80;99.90
54832;DHT22;40730;53.068;6.572;2023-06-24T04:37:15;15.80;99.90
54832;DHT22;40730;53.068;6.572;2023-06-24T04:39:41;16.00;99.90
54832;DHT22;40730;53.068;6.572;2023-06-24T04:42:07;16.00;99.90
54832;DHT22;40730;53.068;6.572;2023-06-24T04:44:32;16.10;99.90
54832;DHT22;40730;53.068;6.572;2023-06-24T04:46:58;16.20;99.90
54832;DHT22;40730;53.068;6.572;2023-06-24T04:49:24;16.40;99.90
54832;DHT22;40730;53.068;6.572;2023-06-24T04:51:49;16.40;99.90
54832;DHT22;40730;53.068;6.572;2023-06-24T04:54:15;16.50;99.90
54832;DHT22;40730;53.068;6.572;2023-06-24T04:56:41;16.40;99.90
54832;DHT22;40730;53.068;6.572;2023-06-24T04:59:06;16.50;99.90
54832;DHT22;40730;53.068;6.572;2023-06-24T05:01:32;16.50;99.90
54832;DHT22;40730;53.068;6.572;2023-06-24T05:03:58;16.50;99.90
54832;DHT22;40730;53.068;6.572;2023-06-24T05:06:23;16.40;99.90
54832;DHT22;40730;53.068;6.572;2023-06-24T05:08:49;16.50;99.90
54832;DHT22;40730;53.068;6.572;2023-06-24T05:11:14;16.60;99.90
54832;DHT22;40730;53.068;6.572;2023-06-24T05:13:40;16.60;99.90
54832;DHT22;40730;53.068;6.572;2023-06-24T05:16:06;16.60;99.90
54832;DHT22;40730;53.068;6.572;2023-06-24T05:18:31;16.70;99.90
54832;DHT22;40730;53.068;6.572;2023-06-24T05:20:57;16.80;99.90
54832;DHT22;40730;53.068;6.572;2023-06-24T05:23:23;16.90;99.90
54832;DHT22;40730;53.068;6.572;2023-06-24T05:25:48;16.90;99.90
54832;DHT22;40730;53.068;6.572;2023-06-24T05:28:14;17.10;99.90
54832;DHT22;40730;53.068;6.572;2023-06-24T05:30:41;17.20;99.90
54832;DHT22;40730;53.068;6.572;2023-06-24T05:33:07;17.20;99.90
54832;DHT22;40730;53.068;6.572;2023-06-24T05:35:33;17.40;99.90
54832;DHT22;40730;53.068;6.572;2023-06-24T05:38:01;17.40;99.90
54832;DHT22;40730;53.068;6.572;2023-06-24T05:40:27;17.60;99.90
54832;DHT22;40730;53.068;6.572;2023-06-24T05:42:52;17.70;99.90
54832;DHT22;40730;53.068;6.572;2023-06-24T05:45:18;17.80;99.90
54832;DHT22;40730;53.068;6.572;2023-06-24T05:47:44;17.90;99.90
54832;DHT22;40730;53.068;6.572;2023-06-24T05:50:11;18.00;99.90
54832;DHT22;40730;53.068;6.572;2023-06-24T05:52:37;18.10;99.90
54832;DHT22;40730;53.068;6.572;2023-06-24T05:55:03;18.20;99.90
54832;DHT22;40730;53.068;6.572;2023-06-24T05:57:29;18.30;99.90
54832;DHT22;40730;53.068;6.572;2023-06-24T05:59:54;18.40;99.90
54832;DHT22;40730;53.068;6.572;2023-06-24T06:02:20;18.60;99.90
54832;DHT22;40730;53.068;6.572;2023-06-24T06:04:46;18.70;99.90
54832;DHT22;40730;53.068;6.572;2023-06-24T06:07:12;18.70;99.90
54832;DHT22;40730;53.068;6.572;2023-06-24T06:09:37;18.90;99.90
54832;DHT22;40730;53.068;6.572;2023-06-24T06:12:03;18.90;99.90
54832;DHT22;40730;53.068;6.572;2023-06-24T06:14:29;19.10;99.90
54832;DHT22;40730;53.068;6.572;2023-06-24T06:16:55;19.20;99.90
54832;DHT22;40730;53.068;6.572;2023-06-24T06:19:20;19.30;99.90
54832;DHT22;40730;53.068;6.572;2023-06-24T06:21:46;19.40;99.90
54832;DHT22;40730;53.068;6.572;2023-06-24T06:24:12;19.50;99.90
54832;DHT22;40730;53.068;6.572;2023-06-24T06:26:42;19.70;99.90
54832;DHT22;40730;53.068;6.572;2023-06-24T06:29:09;19.80;99.90
54832;DHT22;40730;53.068;6.572;2023-06-24T06:31:34;19.90;99.90
54832;DHT22;40730;53.068;6.572;2023-06-24T06:34:00;20.00;99.90
54832;DHT22;40730;53.068;6.572;2023-06-24T06:36:27;20.20;99.90
54832;DHT22;40730;53.068;6.572;2023-06-24T06:38:53;20.30;99.90
54832;DHT22;40730;53.068;6.572;2023-06-24T06:41:18;20.50;99.90
54832;DHT22;40730;53.068;6.572;2023-06-24T06:43:50;20.70;99.90
54832;DHT22;40730;53.068;6.572;2023-06-24T06:46:15;20.90;99.90
54832;DHT22;40730;53.068;6.572;2023-06-24T06:48:41;21.10;99.90
54832;DHT22;40730;53.068;6.572;2023-06-24T06:51:07;21.20;99.90
54832;DHT22;40730;53.068;6.572;2023-06-24T06:53:32;21.40;99.90
54832;DHT22;40730;53.068;6.572;2023-06-24T06:55:58;21.50;99.90
54832;DHT22;40730;53.068;6.572;2023-06-24T06:58:24;21.70;99.90
54832;DHT22;40730;53.068;6.572;2023-06-24T07:00:50;22.00;99.90
54832;DHT22;40730;53.068;6.572;2023-06-24T07:03:15;22.10;99.90
54832;DHT22;40730;53.068;6.572;2023-06-24T07:05:41;22.40;99.90
54832;DHT22;40730;53.068;6.572;2023-06-24T07:08:07;22.60;99.90
54832;DHT22;40730;53.068;6.572;2023-06-24T07:10:32;22.70;99.90
54832;DHT22;40730;53.068;6.572;2023-06-24T07:12:58;22.70;99.90
54832;DHT22;40730;53.068;6.572;2023-06-24T07:15:27;22.70;99.90
54832;DHT22;40730;53.068;6.572;2023-06-24T07:17:53;22.90;99.90
54832;DHT22;40730;53.068;6.572;2023-06-24T07:20:19;22.80;99.90
54832;DHT22;40730;53.068;6.572;2023-06-24T07:22:45;22.90;99.90
54832;DHT22;40730;53.068;6.572;2023-06-24T07:25:11;22.90;99.90
54832;DHT22;40730;53.068;6.572;2023-06-24T07:27:37;22.90;99.90
54832;DHT22;40730;53.068;6.572;2023-06-24T07:30:04;22.90;99.90
54832;DHT22;40730;53.068;6.572;2023-06-24T07:32:30;22.90;99.90
54832;DHT22;40730;53.068;6.572;2023-06-24T07:34:55;22.80;99.90
54832;DHT22;40730;53.068;6.572;2023-06-24T07:37:22;22.90;99.90
54832;DHT22;40730;53.068;6.572;2023-06-24T07:39:48;22.90;99.90
54832;DHT22;40730;53.068;6.572;2023-06-24T07:42:13;22.90;99.90
54832;DHT22;40730;53.068;6.572;2023-06-24T07:44:45;22.80;99.90
54832;DHT22;40730;53.068;6.572;2023-06-24T07:47:10;22.90;99.90
54832;DHT22;40730;53.068;6.572;2023-06-24T07:49:36;22.90;99.90
54832;DHT22;40730;53.068;6.572;2023-06-24T07:52:02;23.00;99.90
54832;DHT22;40730;53.068;6.572;2023-06-24T07:54:27;23.10;99.90
54832;DHT22;40730;53.068;6.572;2023-06-24T07:56:53;23.20;99.90
54832;DHT22;40730;53.068;6.572;2023-06-24T07:59:19;23.40;99.90
54832;DHT22;40730;53.068;6.572;2023-06-24T08:01:44;23.60;99.90
54832;DHT22;40730;53.068;6.572;2023-06-24T08:04:10;23.80;99.90
54832;DHT22;40730;53.068;6.572;2023-06-24T08:06:35;23.90;99.90
54832;DHT22;40730;53.068;6.572;2023-06-24T08:09:01;23.90;99.90
54832;DHT22;40730;53.068;6.572;2023-06-24T08:11:26;24.10;99.90
54832;DHT22;40730;53.068;6.572;2023-06-24T08:13:52;24.10;99.90
54832;DHT22;40730;53.068;6.572;2023-06-24T08:16:18;24.10;99.90
54832;DHT22;40730;53.068;6.572;2023-06-24T08:18:46;24.20;99.90
54832;DHT22;40730;53.068;6.572;2023-06-24T08:21:12;24.40;99.90
54832;DHT22;40730;53.068;6.572;2023-06-24T08:23:37;24.50;99.90
54832;DHT22;40730;53.068;6.572;2023-06-24T08:26:03;24.60;99.90
54832;DHT22;40730;53.068;6.572;2023-06-24T08:28:28;24.60;99.90
54832;DHT22;40730;53.068;6.572;2023-06-24T08:30:54;24.70;99.90
54832;DHT22;40730;53.068;6.572;2023-06-24T08:33:20;24.70;99.90
54832;DHT22;40730;53.068;6.572;2023-06-24T08:35:45;24.70;99.90
54832;DHT22;40730;53.068;6.572;2023-06-24T08:38:11;24.80;99.90
54832;DHT22;40730;53.068;6.572;2023-06-24T08:40:38;24.90;99.90
54832;DHT22;40730;53.068;6.572;2023-06-24T08:43:06;25.00;99.90
54832;DHT22;40730;53.068;6.572;2023-06-24T08:45:31;25.00;99.90
54832;DHT22;40730;53.068;6.572;2023-06-24T08:47:58;25.00;99.90
54832;DHT22;40730;53.068;6.572;2023-06-24T08:50:31;24.90;99.90
54832;DHT22;40730;53.068;6.572;2023-06-24T08:53:00;24.80;99.90
54832;DHT22;40730;53.068;6.572;2023-06-24T08:55:29;24.80;99.90
54832;DHT22;40730;53.068;6.572;2023-06-24T08:57:56;24.90;99.50
54832;DHT22;40730;53.068;6.572;2023-06-24T09:00:22;24.90;99.30
54832;DHT22;40730;53.068;6.572;2023-06-24T09:02:47;25.00;98.90
54832;DHT22;40730;53.068;6.572;2023-06-24T09:05:13;25.10;98.80
54832;DHT22;40730;53.068;6.572;2023-06-24T09:07:39;25.20;99.30
54832;DHT22;40730;53.068;6.572;2023-06-24T09:10:05;25.40;98.60
54832;DHT22;40730;53.068;6.572;2023-06-24T09:12:34;25.50;99.10
54832;DHT22;40730;53.068;6.572;2023-06-24T09:15:00;25.50;99.40
54832;DHT22;40730;53.068;6.572;2023-06-24T09:17:25;25.60;99.40
54832;DHT22;40730;53.068;6.572;2023-06-24T09:19:51;25.70;99.30
54832;DHT22;40730;53.068;6.572;2023-06-24T09:22:17;25.90;98.50
54832;DHT22;40730;53.068;6.572;2023-06-24T09:24:45;26.20;98.40
54832;DHT22;40730;53.068;6.572;2023-06-24T09:27:12;26.50;97.80
54832;DHT22;40730;53.068;6.572;2023-06-24T09:29:39;26.90;96.90
54832;DHT22;40730;53.068;6.572;2023-06-24T09:32:05;27.10;95.60
54832;DHT22;40730;53.068;6.572;2023-06-24T09:34:32;27.30;95.60
54832;DHT22;40730;53.068;6.572;2023-06-24T09:36:59;27.50;95.50
54832;DHT22;40730;53.068;6.572;2023-06-24T09:39:26;27.70;94.20
54832;DHT22;40730;53.068;6.572;2023-06-24T09:41:56;27.80;94.10
54832;DHT22;40730;53.068;6.572;2023-06-24T09:44:22;28.00;93.20
54832;DHT22;40730;53.068;6.572;2023-06-24T09:46:48;28.10;93.20
54832;DHT22;40730;53.068;6.572;2023-06-24T09:49:14;28.30;93.00
54832;DHT22;40730;53.068;6.572;2023-06-24T09:51:43;28.40;92.70
54832;DHT22;40730;53.068;6.572;2023-06-24T09:54:11;28.30;91.20
54832;DHT22;40730;53.068;6.572;2023-06-24T09:56:40;28.50;91.90
54832;DHT22;40730;53.068;6.572;2023-06-24T09:59:07;28.80;91.10
54832;DHT22;40730;53.068;6.572;2023-06-24T10:01:36;28.80;88.90
54832;DHT22;40730;53.068;6.572;2023-06-24T10:04:04;28.70;90.50
54832;DHT22;40730;53.068;6.572;2023-06-24T10:06:34;28.80;90.40
54832;DHT22;40730;53.068;6.572;2023-06-24T10:09:04;29.10;90.40
54832;DHT22;40730;53.068;6.572;2023-06-24T10:11:30;29.40;89.40
54832;DHT22;40730;53.068;6.572;2023-06-24T10:13:56;29.40;87.40
54832;DHT22;40730;53.068;6.572;2023-06-24T10:16:22;29.60;86.50
54832;DHT22;40730;53.068;6.572;2023-06-24T10:18:48;29.40;82.20
54832;DHT22;40730;53.068;6.572;2023-06-24T10:21:15;29.10;85.40
54832;DHT22;40730;53.068;6.572;2023-06-24T10:26:11;29.00;86.80
54832;DHT22;40730;53.068;6.572;2023-06-24T10:37:03;28.60;78.10
54832;DHT22;40730;53.068;6.572;2023-06-24T10:42:32;29.00;79.80
54832;DHT22;40730;53.068;6.572;2023-06-24T10:47:37;28.90;78.20
54832;DHT22;40730;53.068;6.572;2023-06-24T10:50:05;28.70;78.20
54832;DHT22;40730;53.068;6.572;2023-06-24T10:52:31;28.40;78.60
54832;DHT22;40730;53.068;6.572;2023-06-24T10:54:58;28.70;80.00
54832;DHT22;40730;53.068;6.572;2023-06-24T10:57:26;29.10;81.00
54832;DHT22;40730;53.068;6.572;2023-06-24T10:59:55;29.60;78.20
54832;DHT22;40730;53.068;6.572;2023-06-24T11:02:22;30.00;78.20
54832;DHT22;40730;53.068;6.572;2023-06-24T11:04:56;30.20;73.40
54832;DHT22;40730;53.068;6.572;2023-06-24T11:07:30;30.00;72.60
54832;DHT22;40730;53.068;6.572;2023-06-24T11:10:12;29.50;75.40
54832;DHT22;40730;53.068;6.572;2023-06-24T11:12:39;29.10;75.90
54832;DHT22;40730;53.068;6.572;2023-06-24T11:15:10;29.10;80.10
54832;DHT22;40730;53.068;6.572;2023-06-24T11:17:44;29.00;78.50
54832;DHT22;40730;53.068;6.572;2023-06-24T11:20:41;29.20;80.30
54832;DHT22;40730;53.068;6.572;2023-06-24T11:23:43;29.10;78.40
54832;DHT22;40730;53.068;6.572;2023-06-24T11:29:36;29.50;79.30
54832;DHT22;40730;53.068;6.572;2023-06-24T11:32:55;29.90;75.50
54832;DHT22;40730;53.068;6.572;2023-06-24T11:35:25;30.20;77.40
54832;DHT22;40730;53.068;6.572;2023-06-24T11:38:14;30.50;74.80
54832;DHT22;40730;53.068;6.572;2023-06-24T11:41:02;30.90;72.00
54832;DHT22;40730;53.068;6.572;2023-06-24T11:44:08;31.20;73.00
54832;DHT22;40730;53.068;6.572;2023-06-24T11:47:26;31.50;71.60
54832;DHT22;40730;53.068;6.572;2023-06-24T11:50:39;31.70;70.10
54832;DHT22;40730;53.068;6.572;2023-06-24T11:53:41;31.50;70.50
54832;DHT22;40730;53.068;6.572;2023-06-24T11:57:03;31.10;70.90
54832;DHT22;40730;53.068;6.572;2023-06-24T11:59:54;31.00;74.60
54832;DHT22;40730;53.068;6.572;2023-06-24T12:03:13;31.20;71.40
54832;DHT22;40730;53.068;6.572;2023-06-24T12:06:27;31.30;68.50
54832;DHT22;40730;53.068;6.572;2023-06-24T12:09:09;31.10;68.00
54832;DHT22;40730;53.068;6.572;2023-06-24T12:15:52;31.60;70.70
54832;DHT22;40730;53.068;6.572;2023-06-24T12:19:03;32.00;70.60
54832;DHT22;40730;53.068;6.572;2023-06-24T12:22:32;32.10;68.40
54832;DHT22;40730;53.068;6.572;2023-06-24T12:25:15;32.50;69.70
54832;DHT22;40730;53.068;6.572;2023-06-24T12:28:49;32.40;66.40
54832;DHT22;40730;53.068;6.572;2023-06-24T12:31:49;32.40;66.60
54832;DHT22;40730;53.068;6.572;2023-06-24T12:34:35;32.30;65.50
54832;DHT22;40730;53.068;6.572;2023-06-24T12:37:35;32.20;66.10
54832;DHT22;40730;53.068;6.572;2023-06-24T12:40:39;32.10;65.80
54832;DHT22;40730;53.068;6.572;2023-06-24T12:43:40;32.20;64.30
54832;DHT22;40730;53.068;6.572;2023-06-24T12:46:26;32.60;63.60
54832;DHT22;40730;53.068;6.572;2023-06-24T12:48:57;32.60;63.20
54832;DHT22;40730;53.068;6.572;2023-06-24T12:51:37;32.40;61.80
54832;DHT22;40730;53.068;6.572;2023-06-24T12:54:12;31.70;61.00
54832;DHT22;40730;53.068;6.572;2023-06-24T12:57:31;30.90;63.10
54832;DHT22;40730;53.068;6.572;2023-06-24T13:00:32;30.40;66.60
54832;DHT22;40730;53.068;6.572;2023-06-24T13:03:33;30.10;64.70
54832;DHT22;40730;53.068;6.572;2023-06-24T13:06:17;30.20;65.80
54832;DHT22;40730;53.068;6.572;2023-06-24T13:09:13;30.10;67.00
54832;DHT22;40730;53.068;6.572;2023-06-24T13:12:01;29.70;67.30
54832;DHT22;40730;53.068;6.572;2023-06-24T13:14:42;29.90;67.20
54832;DHT22;40730;53.068;6.572;2023-06-24T13:17:26;30.00;65.50
54832;DHT22;40730;53.068;6.572;2023-06-24T13:20:45;29.90;66.60
54832;DHT22;40730;53.068;6.572;2023-06-24T13:23:50;29.90;64.60
54832;DHT22;40730;53.068;6.572;2023-06-24T13:27:16;29.40;67.90
54832;DHT22;40730;53.068;6.572;2023-06-24T13:29:50;28.80;68.90
54832;DHT22;40730;53.068;6.572;2023-06-24T13:32:56;28.40;70.20
54832;DHT22;40730;53.068;6.572;2023-06-24T13:35:58;27.80;73.60
54832;DHT22;40730;53.068;6.572;2023-06-24T13:38:59;27.70;74.80
54832;DHT22;40730;53.068;6.572;2023-06-24T13:41:25;27.40;77.20
54832;DHT22;40730;53.068;6.572;2023-06-24T13:43:55;27.40;77.20
54832;DHT22;40730;53.068;6.572;2023-06-24T13:46:20;27.40;79.40
54832;DHT22;40730;53.068;6.572;2023-06-24T13:48:46;27.40;83.80
54832;DHT22;40730;53.068;6.572;2023-06-24T13:51:12;27.50;81.90
54832;DHT22;40730;53.068;6.572;2023-06-24T13:53:37;27.50;82.50
54832;DHT22;40730;53.068;6.572;2023-06-24T13:56:03;27.40;81.10
54832;DHT22;40730;53.068;6.572;2023-06-24T13:58:29;27.40;80.40
54832;DHT22;40730;53.068;6.572;2023-06-24T14:00:54;27.40;82.70
54832;DHT22;40730;53.068;6.572;2023-06-24T14:03:20;27.50;82.10
54832;DHT22;40730;53.068;6.572;2023-06-24T14:05:45;27.50;81.80
54832;DHT22;40730;53.068;6.572;2023-06-24T14:08:11;27.40;84.10
54832;DHT22;40730;53.068;6.572;2023-06-24T14:10:37;27.30;83.50
54832;DHT22;40730;53.068;6.572;2023-06-24T14:13:02;27.30;83.00
54832;DHT22;40730;53.068;6.572;2023-06-24T14:15:28;27.30;85.40
54832;DHT22;40730;53.068;6.572;2023-06-24T14:17:53;27.20;86.40
54832;DHT22;40730;53.068;6.572;2023-06-24T14:20:19;27.00;87.10
54832;DHT22;40730;53.068;6.572;2023-06-24T14:22:44;26.90;88.90
54832;DHT22;40730;53.068;6.572;2023-06-24T14:25:10;26.80;90.70
54832;DHT22;40730;53.068;6.572;2023-06-24T14:27:36;26.70;90.60
54832;DHT22;40730;53.068;6.572;2023-06-24T14:30:02;26.80;91.70
54832;DHT22;40730;53.068;6.572;2023-06-24T14:32:28;27.00;91.80
54832;DHT22;40730;53.068;6.572;2023-06-24T14:34:53;27.20;91.20
54832;DHT22;40730;53.068;6.572;2023-06-24T14:37:19;27.30;90.90
54832;DHT22;40730;53.068;6.572;2023-06-24T14:39:45;27.30;91.20
54832;DHT22;40730;53.068;6.572;2023-06-24T14:42:10;27.30;91.80
54832;DHT22;40730;53.068;6.572;2023-06-24T14:44:36;27.10;92.60
54832;DHT22;40730;53.068;6.572;2023-06-24T14:47:01;26.90;93.90
54832;DHT22;40730;53.068;6.572;2023-06-24T14:49:28;26.80;93.60
54832;DHT22;40730;53.068;6.572;2023-06-24T14:51:53;26.80;94.60
54832;DHT22;40730;53.068;6.572;2023-06-24T14:54:19;26.80;94.90
54832;DHT22;40730;53.068;6.572;2023-06-24T14:56:45;26.70;96.70
54832;DHT22;40730;53.068;6.572;2023-06-24T14:59:11;26.60;96.30
54832;DHT22;40730;53.068;6.572;2023-06-24T15:01:37;26.50;96.30
54832;DHT22;40730;53.068;6.572;2023-06-24T15:04:03;26.50;96.60
54832;DHT22;40730;53.068;6.572;2023-06-24T15:06:29;26.50;96.30
54832;DHT22;40730;53.068;6.572;2023-06-24T15:08:54;26.50;96.00
54832;DHT22;40730;53.068;6.572;2023-06-24T15:11:20;26.40;96.30
54832;DHT22;40730;53.068;6.572;2023-06-24T15:13:46;26.40;96.80
54832;DHT22;40730;53.068;6.572;2023-06-24T15:16:11;26.30;97.60
54832;DHT22;40730;53.068;6.572;2023-06-24T15:18:47;26.30;98.00
54832;DHT22;40730;53.068;6.572;2023-06-24T15:21:13;26.30;97.00
54832;DHT22;40730;53.068;6.572;2023-06-24T15:23:39;26.30;96.30
54832;DHT22;40730;53.068;6.572;2023-06-24T15:26:05;26.30;97.20
54832;DHT22;40730;53.068;6.572;2023-06-24T15:28:30;26.20;97.00
54832;DHT22;40730;53.068;6.572;2023-06-24T15:30:56;26.20;96.70
54832;DHT22;40730;53.068;6.572;2023-06-24T15:33:22;26.20;97.90
54832;DHT22;40730;53.068;6.572;2023-06-24T15:35:47;26.30;97.80
54832;DHT22;40730;53.068;6.572;2023-06-24T15:38:13;26.20;97.00
54832;DHT22;40730;53.068;6.572;2023-06-24T15:40:42;26.10;97.90
54832;DHT22;40730;53.068;6.572;2023-06-24T15:47:02;26.00;97.40
54832;DHT22;40730;53.068;6.572;2023-06-24T15:49:29;25.80;97.50
54832;DHT22;40730;53.068;6.572;2023-06-24T15:51:54;25.70;99.00
54832;DHT22;40730;53.068;6.572;2023-06-24T15:54:20;25.60;99.10
54832;DHT22;40730;53.068;6.572;2023-06-24T15:56:45;25.50;99.60
54832;DHT22;40730;53.068;6.572;2023-06-24T15:59:11;25.40;99.90
54832;DHT22;40730;53.068;6.572;2023-06-24T16:01:37;25.20;99.90
54832;DHT22;40730;53.068;6.572;2023-06-24T16:04:04;25.10;99.90
54832;DHT22;40730;53.068;6.572;2023-06-24T16:06:29;24.90;99.90
54832;DHT22;40730;53.068;6.572;2023-06-24T16:08:55;24.80;99.90
54832;DHT22;40730;53.068;6.572;2023-06-24T16:11:21;24.80;99.90
54832;DHT22;40730;53.068;6.572;2023-06-24T16:13:47;24.70;99.90
54832;DHT22;40730;53.068;6.572;2023-06-24T16:16:13;24.60;99.90
54832;DHT22;40730;53.068;6.572;2023-06-24T16:18:39;24.70;99.90
54832;DHT22;40730;53.068;6.572;2023-06-24T16:21:05;24.70;99.90
54832;DHT22;40730;53.068;6.572;2023-06-24T16:23:30;24.70;99.90
54832;DHT22;40730;53.068;6.572;2023-06-24T16:25:56;24.80;99.90
54832;DHT22;40730;53.068;6.572;2023-06-24T16:28:22;24.70;99.90